Time;durP1;ratioP1;P1;durP2;ratioP2;P2;SDS_P1;SDS_P2;PMS_P1;PMS_P2;Temp;Humidity;BMP_temperature;BMP_pressure;BME280_temperature;BME280_humidity;BME280_pressure;Samples;Min_cycle;Max_cycle;Signal;HPM_P1;HPM_P2
2023/05/05 00:00:14;;;;;;;1.27;1.27;;;11.20;91.60;;;;;;6006084;23;20152;-72
2023/05/05 00:02:40;;;;;;;1.20;1.10;;;11.20;91.60;;;;;;6004183;23;20164;-72
2023/05/05 00:05:06;;;;;;;0.75;0.75;;;11.10;92.00;;;;;;6006388;23;20680;-72
2023/05/05 00:07:32;;;;;;;1.30;1.30;;;10.90;92.90;;;;;;6006483;23;20231;-72
2023/05/05 00:09:58;;;;;;;0.93;0.93;;;10.90;92.70;;;;;;6006013;23;20188;-73
2023/05/05 00:12:23;;;;;;;1.13;1.13;;;11.00;92.30;;;;;;6006044;23;20196;-73
2023/05/05 00:14:49;;;;;;;1.45;1.35;;;10.80;92.80;;;;;;6005395;23;20149;-73
2023/05/05 00:17:15;;;;;;;1.60;1.50;;;10.60;93.60;;;;;;6004455;23;20256;-73
2023/05/05 00:19:41;;;;;;;1.73;1.25;;;10.50;94.10;;;;;;6006238;23;20175;-73
2023/05/05 00:22:08;;;;;;;1.20;1.10;;;10.40;94.40;;;;;;6006291;23;20156;-74
2023/05/05 00:24:34;;;;;;;1.40;1.30;;;10.30;94.60;;;;;;6004593;23;20164;-73
2023/05/05 00:27:01;;;;;;;1.67;1.52;;;10.20;95.10;;;;;;6004338;23;20161;-72
2023/05/05 00:29:26;;;;;;;1.50;1.23;;;10.20;95.20;;;;;;6006622;23;20152;-73
2023/05/05 00:31:52;;;;;;;1.35;1.25;;;10.30;94.60;;;;;;6005970;23;20212;-72
2023/05/05 00:34:18;;;;;;;1.83;1.70;;;10.30;94.50;;;;;;6006135;23;20157;-73
2023/05/05 00:36:43;;;;;;;1.65;1.55;;;10.20;94.70;;;;;;6006643;23;20589;-73
2023/05/05 00:39:09;;;;;;;1.60;1.48;;;10.20;94.80;;;;;;6005298;23;20621;-72
2023/05/05 00:41:35;;;;;;;1.80;1.70;;;10.30;94.10;;;;;;6005315;23;20167;-72
2023/05/05 00:44:01;;;;;;;1.15;1.15;;;10.40;93.70;;;;;;6006286;23;20160;-72
2023/05/05 00:46:29;;;;;;;2.03;1.35;;;10.40;93.60;;;;;;6006900;23;20188;-72
2023/05/05 00:48:55;;;;;;;1.23;1.20;;;10.20;94.20;;;;;;6008303;23;20596;-72
2023/05/05 00:51:21;;;;;;;1.63;1.52;;;10.30;94.30;;;;;;6008841;23;20184;-72
2023/05/05 00:53:47;;;;;;;1.02;1.02;;;10.30;94.20;;;;;;6007991;23;20668;-74
2023/05/05 00:56:14;;;;;;;1.15;1.15;;;10.20;94.50;;;;;;6008073;23;20163;-72
2023/05/05 00:58:42;;;;;;;0.98;0.98;;;10.10;94.80;;;;;;6006159;23;20247;-72
2023/05/05 01:01:09;;;;;;;1.20;1.20;;;10.10;95.00;;;;;;6006385;23;20609;-72
2023/05/05 01:03:38;;;;;;;1.13;1.13;;;10.00;95.20;;;;;;6006037;23;20157;-72
2023/05/05 01:06:28;;;;;;;1.50;1.40;;;10.00;95.30;;;;;;6008027;23;20159;-73
2023/05/05 01:09:09;;;;;;;1.02;0.95;;;9.90;95.50;;;;;;6006522;23;20160;-72
2023/05/05 01:11:48;;;;;;;1.30;1.30;;;9.90;95.50;;;;;;6006596;23;20207;-72
2023/05/05 01:14:18;;;;;;;1.30;1.30;;;9.90;95.30;;;;;;6008118;23;20141;-72
2023/05/05 01:16:58;;;;;;;1.30;1.23;;;9.90;95.20;;;;;;6007960;23;20211;-72
2023/05/05 01:19:41;;;;;;;1.58;1.48;;;10.00;94.90;;;;;;6008122;23;20140;-72
2023/05/05 01:22:10;;;;;;;1.70;1.00;;;10.00;94.90;;;;;;6008225;23;20171;-73
2023/05/05 01:25:00;;;;;;;1.15;1.05;;;10.00;95.20;;;;;;6007822;23;20251;-74
2023/05/05 01:27:29;;;;;;;1.55;1.45;;;9.90;95.50;;;;;;6006535;23;20161;-73
2023/05/05 01:30:33;;;;;;;1.30;1.30;;;9.90;95.90;;;;;;6007527;23;20153;-73
2023/05/05 01:33:05;;;;;;;1.35;1.33;;;9.80;96.30;;;;;;6007560;23;20203;-72
2023/05/05 01:35:42;;;;;;;1.45;1.45;;;9.80;96.20;;;;;;6007450;23;20478;-72
2023/05/05 01:38:21;;;;;;;1.70;1.60;;;9.90;95.40;;;;;;6007355;23;20632;-72
2023/05/05 01:41:00;;;;;;;1.70;1.35;;;9.90;95.20;;;;;;6007298;23;20152;-73
2023/05/05 01:43:29;;;;;;;1.10;1.10;;;9.90;95.30;;;;;;6005794;23;20552;-72
2023/05/05 01:45:57;;;;;;;2.35;1.40;;;9.70;96.00;;;;;;6005609;23;20718;-72
2023/05/05 01:48:24;;;;;;;1.75;1.65;;;9.60;96.20;;;;;;6008014;23;20609;-73
2023/05/05 01:50:52;;;;;;;1.50;1.40;;;9.50;96.90;;;;;;6007435;23;20208;-73
2023/05/05 01:53:20;;;;;;;1.50;1.20;;;9.40;97.50;;;;;;6005710;23;20247;-74
2023/05/05 01:55:48;;;;;;;1.77;1.67;;;9.30;97.90;;;;;;6007214;23;20156;-73
2023/05/05 01:58:15;;;;;;;1.90;1.80;;;9.30;98.10;;;;;;6007251;23;20156;-73
2023/05/05 02:00:42;;;;;;;1.98;1.80;;;9.20;98.40;;;;;;6007354;23;20152;-73
2023/05/05 02:03:12;;;;;;;2.15;1.80;;;9.20;98.40;;;;;;6005652;23;20156;-73
2023/05/05 02:05:39;;;;;;;1.33;1.33;;;9.30;98.40;;;;;;6005978;23;20194;-73
2023/05/05 02:08:07;;;;;;;2.35;1.90;;;9.30;98.30;;;;;;6007061;23;20157;-74
2023/05/05 02:10:33;;;;;;;2.15;1.65;;;9.30;98.40;;;;;;6007122;23;20199;-73
2023/05/05 02:13:03;;;;;;;1.35;1.25;;;9.30;98.30;;;;;;6007044;23;20160;-73
2023/05/05 02:15:31;;;;;;;1.02;1.02;;;9.30;98.30;;;;;;6006829;23;20209;-73
2023/05/05 02:17:58;;;;;;;1.33;1.33;;;9.30;98.20;;;;;;6005409;23;20259;-72
2023/05/05 02:20:26;;;;;;;1.23;1.13;;;9.30;98.10;;;;;;6007443;23;20513;-72
2023/05/05 02:22:52;;;;;;;1.30;1.30;;;9.40;97.70;;;;;;6007366;23;20520;-72
2023/05/05 02:25:18;;;;;;;1.00;1.00;;;9.40;97.70;;;;;;6007210;23;20159;-74
2023/05/05 02:27:46;;;;;;;1.17;1.02;;;9.40;97.70;;;;;;6007217;23;20176;-73
2023/05/05 02:30:14;;;;;;;0.95;0.95;;;9.40;97.60;;;;;;6006683;23;20213;-72
2023/05/05 02:33:05;;;;;;;0.95;0.95;;;9.50;97.40;;;;;;6007597;23;20160;-73
2023/05/05 02:35:36;;;;;;;0.95;0.88;;;9.50;97.30;;;;;;6005459;23;20243;-71
2023/05/05 02:38:04;;;;;;;1.95;1.17;;;9.50;97.10;;;;;;6006814;23;20611;-72
2023/05/05 02:40:34;;;;;;;0.98;0.98;;;9.70;96.60;;;;;;6004454;23;20274;-72
2023/05/05 02:43:06;;;;;;;1.13;1.13;;;9.80;96.10;;;;;;6006447;23;20635;-73
2023/05/05 02:45:32;;;;;;;0.68;0.68;;;9.80;95.90;;;;;;6005410;23;20581;-72
2023/05/05 02:48:04;;;;;;;1.15;1.13;;;9.90;95.50;;;;;;6005111;23;20251;-72
2023/05/05 02:50:30;;;;;;;0.95;0.95;;;10.00;95.30;;;;;;6005344;23;20186;-73
2023/05/05 02:52:57;;;;;;;4.43;1.23;;;10.00;95.20;;;;;;6006861;23;20198;-72
2023/05/05 02:55:28;;;;;;;1.25;1.15;;;10.00;95.50;;;;;;6006906;23;20212;-72
2023/05/05 02:58:06;;;;;;;1.10;1.10;;;10.00;95.40;;;;;;6007323;23;20151;-73
2023/05/05 03:00:50;;;;;;;0.98;0.98;;;9.90;95.20;;;;;;6007314;23;20501;-73
2023/05/05 03:03:50;;;;;;;0.75;0.75;;;9.90;95.20;;;;;;6006994;23;20141;-73
2023/05/05 03:06:21;;;;;;;0.88;0.88;;;9.80;95.20;;;;;;5999652;23;20164;-72
2023/05/05 03:09:12;;;;;;;0.82;0.82;;;9.80;95.40;;;;;;6006734;23;20169;-74
2023/05/05 03:11:39;;;;;;;0.70;0.70;;;9.80;95.50;;;;;;6006886;23;20260;-73
2023/05/05 03:14:12;;;;;;;0.80;0.80;;;9.80;95.20;;;;;;6006717;23;20159;-73
2023/05/05 03:16:40;;;;;;;2.08;1.00;;;9.80;95.40;;;;;;6006711;23;20232;-73
2023/05/05 03:19:08;;;;;;;1.55;1.30;;;9.70;95.60;;;;;;6007110;23;20239;-73
2023/05/05 03:21:35;;;;;;;1.13;1.02;;;9.70;95.80;;;;;;6007103;23;20157;-73
2023/05/05 03:24:11;;;;;;;1.00;1.00;;;9.70;95.70;;;;;;6005271;23;20545;-73
2023/05/05 03:26:37;;;;;;;0.95;0.95;;;9.60;95.40;;;;;;6006711;23;20147;-73
2023/05/05 03:29:05;;;;;;;0.90;0.90;;;9.60;95.40;;;;;;6006676;23;20753;-72
2023/05/05 03:31:31;;;;;;;0.93;0.93;;;9.60;95.30;;;;;;6004837;23;20279;-73
2023/05/05 03:33:57;;;;;;;1.30;0.85;;;9.60;95.00;;;;;;6006704;23;20191;-73
2023/05/05 03:36:22;;;;;;;0.85;0.85;;;9.70;94.80;;;;;;6006894;23;20163;-72
2023/05/05 03:38:48;;;;;;;0.93;0.93;;;9.70;94.80;;;;;;6006545;23;20989;-72
2023/05/05 03:41:14;;;;;;;2.50;0.90;;;9.90;94.20;;;;;;6006193;23;20153;-72
2023/05/05 03:43:40;;;;;;;1.25;1.02;;;10.00;93.90;;;;;;6006615;23;20152;-74
2023/05/05 03:46:05;;;;;;;0.65;0.65;;;10.00;93.70;;;;;;6005048;23;20196;-72
2023/05/05 03:48:32;;;;;;;1.77;1.10;;;10.20;93.20;;;;;;6007021;23;20168;-74
2023/05/05 03:50:58;;;;;;;0.80;0.80;;;10.10;93.40;;;;;;6005026;23;20188;-72
2023/05/05 03:53:24;;;;;;;1.27;1.17;;;10.00;93.80;;;;;;6006704;23;20161;-73
2023/05/05 03:55:51;;;;;;;0.85;0.85;;;10.00;94.00;;;;;;6005956;23;20622;-73
2023/05/05 03:58:17;;;;;;;2.10;1.23;;;10.00;94.10;;;;;;6004588;23;20157;-73
2023/05/05 04:00:43;;;;;;;0.80;0.80;;;10.10;93.80;;;;;;6006297;23;20164;-73
2023/05/05 04:03:09;;;;;;;0.95;0.95;;;10.20;93.30;;;;;;6005080;23;20636;-73
2023/05/05 04:05:35;;;;;;;1.45;1.30;;;10.30;93.30;;;;;;6004508;23;20164;-73
2023/05/05 04:08:02;;;;;;;1.30;1.20;;;10.40;92.80;;;;;;6006949;23;20751;-72
2023/05/05 04:10:31;;;;;;;1.27;1.25;;;10.50;92.50;;;;;;6003422;23;20191;-73
2023/05/05 04:12:56;;;;;;;1.60;1.50;;;10.60;92.30;;;;;;6005456;23;20153;-72
2023/05/05 04:15:22;;;;;;;1.15;0.90;;;10.70;92.20;;;;;;6003981;23;20228;-72
2023/05/05 04:17:47;;;;;;;1.27;1.27;;;10.70;92.10;;;;;;6004450;23;20164;-71
2023/05/05 04:20:13;;;;;;;1.65;1.58;;;10.70;92.10;;;;;;6005618;23;20157;-72
2023/05/05 04:22:39;;;;;;;2.97;1.90;;;10.70;91.90;;;;;;6006018;23;20149;-72
2023/05/05 04:25:05;;;;;;;1.80;1.70;;;10.80;91.80;;;;;;6006022;23;20640;-72
2023/05/05 04:27:31;;;;;;;1.73;1.60;;;10.90;91.70;;;;;;6004056;23;20163;-73
2023/05/05 04:29:57;;;;;;;1.42;1.38;;;10.90;91.50;;;;;;6005640;23;20152;-73
2023/05/05 04:32:22;;;;;;;1.45;1.45;;;10.90;91.60;;;;;;6006386;23;20180;-72
2023/05/05 04:34:48;;;;;;;1.58;1.48;;;11.00;91.60;;;;;;6005906;23;20597;-72
2023/05/05 04:37:14;;;;;;;2.72;1.73;;;11.00;91.30;;;;;;6005810;23;20163;-71
2023/05/05 04:39:40;;;;;;;1.55;1.55;;;11.00;91.20;;;;;;6005083;23;20164;-72
2023/05/05 04:42:07;;;;;;;1.88;1.52;;;10.90;91.70;;;;;;6005429;23;20164;-70
2023/05/05 04:44:33;;;;;;;1.40;1.35;;;10.90;91.40;;;;;;6003806;23;20164;-70
2023/05/05 04:46:59;;;;;;;2.00;1.90;;;11.00;91.30;;;;;;6003894;23;20235;-71
2023/05/05 04:49:27;;;;;;;1.75;1.65;;;11.00;91.30;;;;;;6004443;23;20140;-71
2023/05/05 04:51:53;;;;;;;1.60;1.50;;;11.00;91.30;;;;;;6005090;23;20188;-73
2023/05/05 04:54:19;;;;;;;1.30;1.30;;;11.10;91.40;;;;;;6003797;23;20167;-72
2023/05/05 04:56:44;;;;;;;4.53;1.63;;;11.10;91.20;;;;;;6005798;23;20617;-71
2023/05/05 04:59:10;;;;;;;1.95;1.85;;;11.00;91.00;;;;;;6005609;23;20619;-71
2023/05/05 05:01:36;;;;;;;1.77;1.77;;;11.00;91.20;;;;;;6004933;23;20157;-72
2023/05/05 05:04:02;;;;;;;1.67;1.58;;;10.90;91.10;;;;;;6003945;23;20613;-71
2023/05/05 05:06:28;;;;;;;1.60;1.50;;;11.00;90.80;;;;;;6005404;23;20619;-72
2023/05/05 05:08:54;;;;;;;1.80;1.70;;;11.10;90.80;;;;;;6004341;23;20217;-72
2023/05/05 05:11:20;;;;;;;1.52;1.42;;;11.10;90.70;;;;;;6005682;23;20208;-72
2023/05/05 05:13:46;;;;;;;1.75;1.52;;;11.20;90.90;;;;;;5999691;23;21041;-73
2023/05/05 05:16:12;;;;;;;1.55;1.45;;;11.20;90.90;;;;;;6002163;23;20153;-72
2023/05/05 05:18:38;;;;;;;2.88;2.00;;;11.20;90.60;;;;;;6002504;23;20152;-72
2023/05/05 05:21:03;;;;;;;1.98;1.88;;;11.20;90.70;;;;;;6002475;23;20174;-71
2023/05/05 05:23:29;;;;;;;1.30;1.30;;;11.10;91.00;;;;;;6002667;23;20231;-72
2023/05/05 05:25:56;;;;;;;2.03;1.92;;;11.20;90.90;;;;;;6002033;23;20165;-73
2023/05/05 05:28:22;;;;;;;3.00;2.75;;;11.10;90.90;;;;;;6003126;23;20734;-71
2023/05/05 05:30:47;;;;;;;2.22;2.13;;;11.10;91.20;;;;;;6006740;23;20180;-71
2023/05/05 05:33:13;;;;;;;2.03;1.90;;;11.20;91.10;;;;;;6005961;23;20248;-70
2023/05/05 05:35:39;;;;;;;1.98;1.88;;;11.30;90.80;;;;;;6005845;23;20227;-71
2023/05/05 05:38:05;;;;;;;6.22;2.40;;;11.30;90.40;;;;;;6005995;23;20149;-70
2023/05/05 05:40:31;;;;;;;1.70;1.63;;;11.40;90.10;;;;;;6005688;23;20173;-70
2023/05/05 05:42:57;;;;;;;2.45;1.38;;;11.60;89.90;;;;;;6005909;23;20736;-71
2023/05/05 05:45:22;;;;;;;1.27;1.27;;;11.80;88.90;;;;;;6005110;23;20160;-72
2023/05/05 05:47:48;;;;;;;1.52;1.42;;;11.90;88.60;;;;;;6006241;23;20199;-70
2023/05/05 05:50:14;;;;;;;1.13;1.13;;;12.00;88.80;;;;;;6005650;23;20184;-71
2023/05/05 05:52:40;;;;;;;2.58;1.70;;;12.20;87.80;;;;;;6005251;23;20149;-73
2023/05/05 05:55:07;;;;;;;1.98;1.88;;;12.30;86.40;;;;;;6005154;23;20176;-72
2023/05/05 05:57:33;;;;;;;1.80;1.70;;;12.40;86.80;;;;;;6004145;23;20732;-73
2023/05/05 05:59:59;;;;;;;5.50;1.70;;;12.50;86.80;;;;;;6005935;23;20184;-70
2023/05/05 06:02:26;;;;;;;1.73;1.63;;;12.50;86.30;;;;;;6006176;23;20156;-72
2023/05/05 06:04:52;;;;;;;1.65;1.55;;;12.50;86.10;;;;;;6002749;23;20164;-73
2023/05/05 06:07:18;;;;;;;1.48;1.38;;;12.50;85.90;;;;;;6005270;23;20245;-72
2023/05/05 06:09:43;;;;;;;1.42;1.42;;;12.50;85.90;;;;;;6004298;23;20595;-73
2023/05/05 06:12:09;;;;;;;1.75;1.30;;;12.60;85.60;;;;;;6005560;23;20184;-71
2023/05/05 06:14:35;;;;;;;2.20;1.30;;;12.50;85.10;;;;;;6006187;23;20209;-71
2023/05/05 06:17:01;;;;;;;1.60;1.40;;;12.60;85.00;;;;;;6007087;23;20221;-71
2023/05/05 06:19:26;;;;;;;1.85;1.10;;;12.60;84.60;;;;;;6006519;23;20212;-70
2023/05/05 06:21:52;;;;;;;1.20;1.13;;;12.60;84.50;;;;;;6006778;23;20613;-71
2023/05/05 06:24:17;;;;;;;2.80;1.42;;;12.80;84.60;;;;;;6005720;23;20239;-70
2023/05/05 06:26:43;;;;;;;1.23;1.20;;;12.90;84.00;;;;;;6003624;23;20184;-72
2023/05/05 06:29:09;;;;;;;1.40;1.40;;;12.90;84.10;;;;;;6004926;23;20266;-73
2023/05/05 06:31:35;;;;;;;1.45;1.35;;;12.90;84.00;;;;;;6005109;23;20195;-71
2023/05/05 06:34:00;;;;;;;1.70;1.60;;;13.00;84.10;;;;;;6005535;23;20168;-72
2023/05/05 06:36:26;;;;;;;1.70;1.70;;;12.90;83.80;;;;;;6004874;23;20160;-73
2023/05/05 06:38:52;;;;;;;11.85;6.05;;;12.90;83.60;;;;;;6004997;23;20652;-75
2023/05/05 06:41:18;;;;;;;1.73;1.63;;;12.90;84.60;;;;;;6006022;23;20184;-75
2023/05/05 06:43:44;;;;;;;1.45;1.27;;;13.00;83.50;;;;;;6007005;23;20176;-74
2023/05/05 06:46:10;;;;;;;2.63;1.25;;;13.10;83.60;;;;;;6004276;23;20169;-76
2023/05/05 06:48:35;;;;;;;1.08;1.08;;;13.30;84.30;;;;;;6005066;23;20180;-74
2023/05/05 06:51:01;;;;;;;0.90;0.90;;;13.50;84.00;;;;;;6005038;23;20218;-75
2023/05/05 06:53:27;;;;;;;0.60;0.60;;;13.60;82.60;;;;;;6005459;23;20164;-74
2023/05/05 06:55:53;;;;;;;0.77;0.77;;;13.80;82.10;;;;;;6006169;23;20514;-76
2023/05/05 06:58:19;;;;;;;0.60;0.60;;;13.90;82.30;;;;;;6005904;23;20297;-78
2023/05/05 07:00:45;;;;;;;1.13;1.13;;;14.10;81.30;;;;;;6006946;23;20167;-77
2023/05/05 07:03:11;;;;;;;1.23;1.23;;;14.20;79.60;;;;;;6007292;23;20223;-75
2023/05/05 07:05:37;;;;;;;1.00;1.00;;;14.30;79.40;;;;;;6006492;23;20159;-76
2023/05/05 07:08:03;;;;;;;1.00;1.00;;;14.50;79.30;;;;;;6007088;23;20153;-77
2023/05/05 07:10:30;;;;;;;0.75;0.75;;;14.60;79.50;;;;;;6006614;23;20212;-76
2023/05/05 07:12:56;;;;;;;1.02;0.68;;;14.70;79.40;;;;;;6007351;23;20161;-76
2023/05/05 07:15:21;;;;;;;1.90;1.13;;;14.90;79.60;;;;;;6006688;23;20176;-77
2023/05/05 07:17:47;;;;;;;1.00;1.00;;;15.00;78.70;;;;;;6005412;23;20160;-78
2023/05/05 07:20:13;;;;;;;0.68;0.68;;;15.10;77.30;;;;;;6003761;23;20300;-77
2023/05/05 07:22:39;;;;;;;0.65;0.65;;;15.20;76.90;;;;;;6004518;23;20184;-77
2023/05/05 07:25:05;;;;;;;0.95;0.95;;;15.20;76.70;;;;;;6004065;23;20160;-76
2023/05/05 07:27:36;;;;;;;1.05;1.05;;;15.20;76.50;;;;;;6002248;23;20167;-78
2023/05/05 07:30:02;;;;;;;0.77;0.77;;;15.20;76.60;;;;;;6002431;23;20152;-77
2023/05/05 07:32:27;;;;;;;0.93;0.93;;;15.10;76.30;;;;;;6002615;23;20590;-77
2023/05/05 07:34:53;;;;;;;0.63;0.63;;;15.10;76.90;;;;;;6004076;23;20188;-77
2023/05/05 07:37:18;;;;;;;1.05;0.82;;;15.10;77.70;;;;;;6005529;23;20160;-76
2023/05/05 07:39:46;;;;;;;0.75;0.75;;;15.20;77.60;;;;;;6004325;23;20601;-77
2023/05/05 07:42:12;;;;;;;1.10;1.10;;;15.30;77.20;;;;;;6004289;23;20165;-77
2023/05/05 07:44:37;;;;;;;0.93;0.93;;;15.40;77.10;;;;;;6006132;23;20598;-77
2023/05/05 07:47:03;;;;;;;0.93;0.93;;;15.40;76.50;;;;;;6005658;23;20152;-77
2023/05/05 07:49:28;;;;;;;1.02;1.02;;;15.40;76.10;;;;;;6004656;23;20145;-78
2023/05/05 07:51:54;;;;;;;0.82;0.82;;;15.40;76.20;;;;;;6005164;23;20180;-77
2023/05/05 07:54:20;;;;;;;1.23;0.73;;;15.40;76.30;;;;;;6004017;23;20202;-77
2023/05/05 07:56:46;;;;;;;0.90;0.90;;;15.30;76.00;;;;;;6005851;23;20228;-77
2023/05/05 07:59:12;;;;;;;0.82;0.82;;;15.40;75.90;;;;;;6003894;23;20520;-77
2023/05/05 08:01:38;;;;;;;0.65;0.65;;;15.40;76.30;;;;;;6006147;23;20163;-77
2023/05/05 08:04:04;;;;;;;0.85;0.85;;;15.40;76.50;;;;;;6005536;23;20208;-77
2023/05/05 08:06:30;;;;;;;0.80;0.80;;;15.40;76.20;;;;;;6006040;23;20148;-77
2023/05/05 08:08:59;;;;;;;0.70;0.70;;;15.40;75.80;;;;;;6005475;23;20239;-77
2023/05/05 08:11:25;;;;;;;0.77;0.77;;;15.40;76.70;;;;;;6003376;23;20188;-77
2023/05/05 08:13:50;;;;;;;0.85;0.85;;;15.40;76.20;;;;;;6004192;23;20196;-76
2023/05/05 08:16:16;;;;;;;0.82;0.82;;;15.30;76.60;;;;;;6004206;23;20156;-77
2023/05/05 08:18:42;;;;;;;0.77;0.77;;;15.20;76.40;;;;;;6004758;23;20161;-77
2023/05/05 08:21:09;;;;;;;1.08;0.60;;;15.10;76.80;;;;;;6003500;23;20614;-76
2023/05/05 08:23:35;;;;;;;0.60;0.60;;;15.10;77.10;;;;;;6004442;23;20157;-76
2023/05/05 08:26:02;;;;;;;1.27;0.63;;;15.10;77.40;;;;;;6004308;23;20167;-78
2023/05/05 08:28:28;;;;;;;0.57;0.57;;;15.10;77.30;;;;;;6005485;23;20166;-77
2023/05/05 08:30:54;;;;;;;0.45;0.45;;;15.20;77.50;;;;;;6004068;23;20554;-78
2023/05/05 08:33:20;;;;;;;1.65;0.60;;;15.30;77.60;;;;;;6004671;23;20239;-78
2023/05/05 08:35:48;;;;;;;0.65;0.65;;;15.40;77.80;;;;;;6002821;23;20167;-77
2023/05/05 08:38:13;;;;;;;0.90;0.90;;;15.50;77.50;;;;;;6005197;23;20152;-77
2023/05/05 08:40:40;;;;;;;1.23;1.13;;;15.50;75.70;;;;;;6005940;23;20546;-78
2023/05/05 08:43:06;;;;;;;0.80;0.80;;;15.50;75.90;;;;;;6005827;23;20156;-77
2023/05/05 08:45:32;;;;;;;1.65;0.70;;;15.70;77.10;;;;;;6004453;23;20484;-75
2023/05/05 08:48:03;;;;;;;0.60;0.60;;;15.80;76.80;;;;;;6003435;23;20241;-76
2023/05/05 08:50:29;;;;;;;0.65;0.65;;;15.90;76.40;;;;;;6003477;23;20516;-77
2023/05/05 08:53:15;;;;;;;1.85;0.70;;;16.10;75.70;;;;;;6003052;23;20627;-77
2023/05/05 08:55:53;;;;;;;0.52;0.52;;;16.20;75.60;;;;;;6004496;23;20140;-78
2023/05/05 08:58:21;;;;;;;0.65;0.65;;;16.40;74.90;;;;;;6004026;23;20200;-76
2023/05/05 09:00:47;;;;;;;0.43;0.43;;;16.60;74.70;;;;;;6004331;23;20156;-75
2023/05/05 09:03:13;;;;;;;0.60;0.60;;;16.70;75.20;;;;;;6005593;23;20168;-76
2023/05/05 09:05:40;;;;;;;0.88;0.88;;;16.90;75.30;;;;;;6006102;23;20176;-75
2023/05/05 09:08:09;;;;;;;0.85;0.85;;;17.10;75.00;;;;;;6007407;23;20157;-75
2023/05/05 09:10:35;;;;;;;0.57;0.57;;;17.20;74.40;;;;;;6007204;23;20156;-76
2023/05/05 09:13:04;;;;;;;0.90;0.90;;;17.30;73.30;;;;;;6005925;23;20236;-76
2023/05/05 09:15:31;;;;;;;0.60;0.60;;;17.40;72.80;;;;;;6006848;23;20255;-77
2023/05/05 09:17:57;;;;;;;1.50;0.85;;;17.50;72.70;;;;;;6006808;23;20153;-75
2023/05/05 09:20:23;;;;;;;0.50;0.50;;;17.60;72.10;;;;;;6006866;23;20157;-76
2023/05/05 09:22:49;;;;;;;0.68;0.68;;;17.70;72.30;;;;;;6007115;23;20160;-75
2023/05/05 09:25:17;;;;;;;0.55;0.55;;;17.80;71.50;;;;;;6004642;23;20160;-75
2023/05/05 09:27:48;;;;;;;0.73;0.73;;;17.90;71.40;;;;;;6006488;23;20216;-76
2023/05/05 09:30:16;;;;;;;0.50;0.50;;;18.10;71.60;;;;;;6006361;23;20213;-77
2023/05/05 09:32:47;;;;;;;0.70;0.70;;;18.40;70.10;;;;;;6005784;23;20224;-76
2023/05/05 09:35:14;;;;;;;0.60;0.60;;;18.70;69.90;;;;;;6006832;23;20597;-75
2023/05/05 09:37:40;;;;;;;0.75;0.75;;;19.10;69.60;;;;;;6007138;23;20148;-76
2023/05/05 09:40:08;;;;;;;0.60;0.60;;;19.60;68.70;;;;;;6005627;23;20176;-74
2023/05/05 09:42:35;;;;;;;0.57;0.57;;;20.10;67.60;;;;;;6005924;23;20549;-75
2023/05/05 09:45:01;;;;;;;0.80;0.70;;;20.50;66.40;;;;;;6003242;23;20617;-76
2023/05/05 09:47:35;;;;;;;1.63;1.00;;;20.70;65.50;;;;;;6006237;23;20168;-76
2023/05/05 09:50:01;;;;;;;0.93;0.93;;;20.80;64.60;;;;;;6006924;23;20157;-77
2023/05/05 09:52:26;;;;;;;0.60;0.60;;;20.90;64.80;;;;;;6006489;23;20228;-76
2023/05/05 09:54:56;;;;;;;0.65;0.65;;;21.20;64.40;;;;;;6006217;23;20156;-77
2023/05/05 09:57:30;;;;;;;0.52;0.52;;;21.50;63.70;;;;;;6006763;23;20156;-77
2023/05/05 10:00:05;;;;;;;0.68;0.68;;;22.00;62.00;;;;;;6004652;23;20604;-76
2023/05/05 10:02:36;;;;;;;0.60;0.60;;;22.60;61.90;;;;;;6006865;23;20566;-77
2023/05/05 10:05:18;;;;;;;2.53;0.65;;;23.60;60.40;;;;;;6005056;23;20161;-77
2023/05/05 10:07:46;;;;;;;0.50;0.50;;;24.30;58.30;;;;;;6005309;23;20141;-76
2023/05/05 10:10:15;;;;;;;1.95;0.77;;;25.10;57.80;;;;;;6005720;23;20223;-76
2023/05/05 10:12:41;;;;;;;0.93;0.93;;;25.90;55.80;;;;;;6003747;23;20199;-76
2023/05/05 10:15:09;;;;;;;2.25;0.82;;;26.30;55.80;;;;;;6006028;23;20172;-75
2023/05/05 10:17:37;;;;;;;0.82;0.73;;;26.40;54.80;;;;;;6006254;23;20149;-76
2023/05/05 10:20:03;;;;;;;0.73;0.73;;;26.50;54.60;;;;;;6006872;23;20524;-76
2023/05/05 10:22:33;;;;;;;0.70;0.70;;;26.50;55.10;;;;;;6006571;23;20156;-76
2023/05/05 10:25:13;;;;;;;1.75;0.70;;;26.40;54.40;;;;;;6005665;23;20643;-76
2023/05/05 10:27:45;;;;;;;0.95;0.95;;;26.40;53.90;;;;;;6005817;23;20137;-76
2023/05/05 10:30:23;;;;;;;0.93;0.93;;;26.30;54.00;;;;;;6005054;23;20156;-77
2023/05/05 10:33:08;;;;;;;2.28;1.10;;;26.10;53.90;;;;;;6004661;23;20175;-77
2023/05/05 10:35:39;;;;;;;0.93;0.93;;;25.70;56.20;;;;;;6005284;23;20236;-75
2023/05/05 10:38:08;;;;;;;1.13;1.13;;;25.10;55.60;;;;;;6005211;23;20171;-78
2023/05/05 10:40:34;;;;;;;2.72;0.77;;;24.70;57.10;;;;;;6004543;23;20156;-76
2023/05/05 10:43:00;;;;;;;0.80;0.80;;;24.60;57.20;;;;;;6003398;23;20243;-76
2023/05/05 10:45:26;;;;;;;1.05;0.88;;;24.50;57.90;;;;;;6005086;23;20606;-76
2023/05/05 10:47:55;;;;;;;2.67;0.80;;;24.30;57.90;;;;;;6005492;23;20239;-75
2023/05/05 10:50:40;;;;;;;0.90;0.90;;;23.90;58.00;;;;;;6003078;23;20195;-77
2023/05/05 10:53:22;;;;;;;1.50;0.52;;;23.70;60.10;;;;;;6004616;23;20153;-77
2023/05/05 10:56:08;;;;;;;5.50;0.93;;;23.30;60.50;;;;;;6004448;23;20159;-76
2023/05/05 10:58:38;;;;;;;0.68;0.68;;;23.50;61.00;;;;;;6000964;23;20579;-75
2023/05/05 11:01:05;;;;;;;0.52;0.52;;;24.10;59.70;;;;;;6006860;23;20157;-75
2023/05/05 11:03:31;;;;;;;0.75;0.75;;;24.80;57.70;;;;;;6006505;23;20237;-75
2023/05/05 11:06:03;;;;;;;0.73;0.73;;;25.40;57.40;;;;;;6006446;23;20227;-77
2023/05/05 11:08:40;;;;;;;0.73;0.73;;;25.90;57.30;;;;;;6004676;23;20903;-75
2023/05/05 11:11:09;;;;;;;3.13;0.80;;;26.10;55.40;;;;;;6005064;23;20528;-75
2023/05/05 11:13:35;;;;;;;1.30;0.88;;;26.30;56.50;;;;;;6004993;23;20195;-76
2023/05/05 11:16:01;;;;;;;0.77;0.77;;;26.30;55.00;;;;;;6005307;23;20152;-75
2023/05/05 11:18:34;;;;;;;1.58;0.80;;;26.10;54.50;;;;;;6005658;23;20156;-76
2023/05/05 11:21:00;;;;;;;0.60;0.60;;;25.60;55.30;;;;;;6006158;23;20407;-76
2023/05/05 11:23:26;;;;;;;0.85;0.85;;;25.20;56.00;;;;;;6006152;23;20216;-77
2023/05/05 11:25:52;;;;;;;0.93;0.93;;;25.00;56.40;;;;;;6005774;23;20157;-76
2023/05/05 11:28:22;;;;;;;1.08;0.70;;;24.80;57.10;;;;;;6006391;23;20519;-77
2023/05/05 11:30:53;;;;;;;0.73;0.73;;;24.60;58.70;;;;;;6004062;23;20181;-77
2023/05/05 11:33:36;;;;;;;0.50;0.50;;;24.30;56.80;;;;;;6006187;23;20166;-77
2023/05/05 11:36:16;;;;;;;0.82;0.63;;;24.40;58.20;;;;;;6004313;23;20636;-76
2023/05/05 11:39:17;;;;;;;0.52;0.52;;;24.80;56.90;;;;;;6006211;23;20144;-78
2023/05/05 11:42:11;;;;;;;1.35;0.55;;;25.40;56.10;;;;;;6006197;23;20141;-76
2023/05/05 11:44:37;;;;;;;0.60;0.60;;;26.30;55.40;;;;;;6006117;23;20165;-77
2023/05/05 11:47:03;;;;;;;0.60;0.60;;;26.60;54.10;;;;;;6005678;23;20160;-77
2023/05/05 11:49:35;;;;;;;1.65;0.73;;;26.80;54.10;;;;;;6005747;23;20149;-77
2023/05/05 11:52:06;;;;;;;0.52;0.52;;;27.30;54.60;;;;;;6006400;23;20632;-77
2023/05/05 11:54:34;;;;;;;0.70;0.70;;;27.80;53.00;;;;;;6005893;23;20513;-77
2023/05/05 11:57:03;;;;;;;0.60;0.60;;;28.00;54.30;;;;;;6006082;23;20767;-75
2023/05/05 11:59:36;;;;;;;0.40;0.40;;;28.30;55.00;;;;;;6006270;23;20161;-77
2023/05/05 12:02:02;;;;;;;0.60;0.60;;;28.80;52.00;;;;;;6004778;23;20674;-76
2023/05/05 12:04:31;;;;;;;1.85;0.50;;;29.20;53.80;;;;;;6006269;23;20152;-76
2023/05/05 12:06:58;;;;;;;0.52;0.52;;;29.20;50.60;;;;;;6006343;23;20152;-77
2023/05/05 12:09:23;;;;;;;0.63;0.50;;;29.10;51.50;;;;;;6005080;23;20149;-76
2023/05/05 12:11:54;;;;;;;0.60;0.60;;;28.70;50.50;;;;;;6005030;23;20176;-77
2023/05/05 12:14:21;;;;;;;0.60;0.60;;;28.30;53.20;;;;;;6003238;23;20161;-76
2023/05/05 12:17:05;;;;;;;0.50;0.50;;;28.20;51.20;;;;;;6004799;23;20840;-76
2023/05/05 12:19:34;;;;;;;0.40;0.40;;;28.60;52.90;;;;;;6006070;23;20144;-75
2023/05/05 12:22:01;;;;;;;0.60;0.60;;;29.20;51.50;;;;;;6004308;23;20164;-77
2023/05/05 12:24:27;;;;;;;0.60;0.60;;;29.60;52.30;;;;;;6004682;23;20701;-78
2023/05/05 12:26:52;;;;;;;0.50;0.50;;;29.80;50.00;;;;;;6005713;23;20156;-77
2023/05/05 12:29:28;;;;;;;0.60;0.60;;;30.20;51.00;;;;;;6005827;23;20151;-77
2023/05/05 12:31:54;;;;;;;1.27;0.40;;;30.20;48.60;;;;;;6005705;23;20251;-76
2023/05/05 12:34:21;;;;;;;0.57;0.57;;;30.20;50.40;;;;;;6003092;23;20940;-77
2023/05/05 12:36:47;;;;;;;0.40;0.40;;;30.20;51.10;;;;;;6003678;23;20175;-76
2023/05/05 12:39:13;;;;;;;0.40;0.40;;;30.40;50.10;;;;;;6004444;23;20156;-76
2023/05/05 12:41:39;;;;;;;0.50;0.50;;;30.50;51.90;;;;;;6004327;23;20152;-76
2023/05/05 12:44:04;;;;;;;0.32;0.32;;;30.20;50.10;;;;;;6004269;23;20156;-77
2023/05/05 12:46:42;;;;;;;0.40;0.40;;;30.00;50.80;;;;;;6002992;23;20604;-77
2023/05/05 12:49:08;;;;;;;1.33;0.50;;;29.70;48.70;;;;;;6003931;23;20152;-77
2023/05/05 12:51:35;;;;;;;0.47;0.47;;;29.30;52.60;;;;;;6004640;23;20210;-75
2023/05/05 12:54:08;;;;;;;0.68;0.68;;;29.10;53.30;;;;;;6004057;23;20238;-77